sensor_id;sensor_type;location;lat;lon;timestamp;pressure;altitude;pressure_sealevel;temperature;humidity
27144;BME280;14672;50.250;8.312;2023-02-04T00:01:26;100096.22;;;10.74;60.21
27144;BME280;14672;50.250;8.312;2023-02-04T00:03:51;100098.25;;;10.74;60.21
27144;BME280;14672;50.250;8.312;2023-02-04T00:06:17;100104.16;;;10.87;59.66
27144;BME280;14672;50.250;8.312;2023-02-04T00:08:43;100105.03;;;10.80;59.82
27144;BME280;14672;50.250;8.312;2023-02-04T00:11:09;100098.84;;;10.62;60.29
27144;BME280;14672;50.250;8.312;2023-02-04T00:13:34;100099.75;;;10.82;59.81
27144;BME280;14672;50.250;8.312;2023-02-04T00:16:00;100107.63;;;10.71;60.11
27144;BME280;14672;50.250;8.312;2023-02-04T00:18:28;100109.97;;;10.76;60.09
27144;BME280;14672;50.250;8.312;2023-02-04T00:20:53;100122.97;;;10.77;60.05
27144;BME280;14672;50.250;8.312;2023-02-04T00:23:19;100110.22;;;10.62;60.19
27144;BME280;14672;50.250;8.312;2023-02-04T00:25:45;100116.88;;;10.78;59.83
27144;BME280;14672;50.250;8.312;2023-02-04T00:28:11;100121.66;;;10.58;60.14
27144;BME280;14672;50.250;8.312;2023-02-04T00:30:37;100118.22;;;10.70;59.40
27144;BME280;14672;50.250;8.312;2023-02-04T00:33:02;100131.28;;;10.64;59.42
27144;BME280;14672;50.250;8.312;2023-02-04T00:35:28;100129.66;;;10.63;59.78
27144;BME280;14672;50.250;8.312;2023-02-04T00:37:54;100133.69;;;10.66;59.97
27144;BME280;14672;50.250;8.312;2023-02-04T00:40:20;100134.41;;;10.73;59.75
27144;BME280;14672;50.250;8.312;2023-02-04T00:42:46;100131.56;;;10.73;59.84
27144;BME280;14672;50.250;8.312;2023-02-04T00:45:12;100139.97;;;10.80;59.55
27144;BME280;14672;50.250;8.312;2023-02-04T00:47:38;100143.34;;;10.72;59.65
27144;BME280;14672;50.250;8.312;2023-02-04T00:50:04;100143.94;;;10.87;59.37
27144;BME280;14672;50.250;8.312;2023-02-04T00:52:30;100154.59;;;10.79;59.52
27144;BME280;14672;50.250;8.312;2023-02-04T00:54:56;100154.13;;;10.84;59.39
27144;BME280;14672;50.250;8.312;2023-02-04T00:57:22;100148.97;;;10.75;59.05
27144;BME280;14672;50.250;8.312;2023-02-04T00:59:48;100155.41;;;10.79;59.48
27144;BME280;14672;50.250;8.312;2023-02-04T01:02:13;100162.47;;;10.68;59.83
27144;BME280;14672;50.250;8.312;2023-02-04T01:04:40;100159.50;;;10.78;59.68
27144;BME280;14672;50.250;8.312;2023-02-04T01:07:05;100165.50;;;10.84;59.50
27144;BME280;14672;50.250;8.312;2023-02-04T01:09:31;100163.50;;;10.81;59.56
27144;BME280;14672;50.250;8.312;2023-02-04T01:11:57;100167.16;;;10.81;59.46
27144;BME280;14672;50.250;8.312;2023-02-04T01:14:22;100168.34;;;10.84;59.31
27144;BME280;14672;50.250;8.312;2023-02-04T01:16:48;100173.28;;;10.80;59.27
27144;BME280;14672;50.250;8.312;2023-02-04T01:19:14;100181.81;;;10.80;59.23
27144;BME280;14672;50.250;8.312;2023-02-04T01:21:40;100185.09;;;10.78;59.43
27144;BME280;14672;50.250;8.312;2023-02-04T01:24:05;100193.22;;;10.76;59.35
27144;BME280;14672;50.250;8.312;2023-02-04T01:26:31;100189.56;;;10.76;59.31
27144;BME280;14672;50.250;8.312;2023-02-04T01:28:57;100189.56;;;10.76;59.48
27144;BME280;14672;50.250;8.312;2023-02-04T01:31:23;100187.88;;;10.82;59.60
27144;BME280;14672;50.250;8.312;2023-02-04T01:33:49;100194.91;;;10.74;59.41
27144;BME280;14672;50.250;8.312;2023-02-04T01:36:15;100206.38;;;10.67;59.49
27144;BME280;14672;50.250;8.312;2023-02-04T01:38:47;100207.50;;;10.73;59.06
27144;BME280;14672;50.250;8.312;2023-02-04T01:41:14;100191.19;;;10.77;58.66
27144;BME280;14672;50.250;8.312;2023-02-04T01:43:40;100191.66;;;10.72;58.58
27144;BME280;14672;50.250;8.312;2023-02-04T01:46:06;100197.03;;;10.66;58.57
27144;BME280;14672;50.250;8.312;2023-02-04T01:48:32;100196.22;;;10.66;58.64
27144;BME280;14672;50.250;8.312;2023-02-04T01:51:06;100200.28;;;10.65;58.17
27144;BME280;14672;50.250;8.312;2023-02-04T01:53:33;100192.63;;;10.62;58.36
27144;BME280;14672;50.250;8.312;2023-02-04T01:56:00;100192.94;;;10.67;57.94
27144;BME280;14672;50.250;8.312;2023-02-04T01:58:29;100201.56;;;10.60;58.34
27144;BME280;14672;50.250;8.312;2023-02-04T02:00:56;100201.91;;;10.66;58.22
27144;BME280;14672;50.250;8.312;2023-02-04T02:03:22;100210.31;;;10.46;57.88
27144;BME280;14672;50.250;8.312;2023-02-04T02:05:51;100203.34;;;10.51;57.90
27144;BME280;14672;50.250;8.312;2023-02-04T02:08:18;100212.38;;;10.42;58.15
27144;BME280;14672;50.250;8.312;2023-02-04T02:10:48;100215.88;;;10.53;58.14
27144;BME280;14672;50.250;8.312;2023-02-04T02:13:18;100215.19;;;10.46;58.07
27144;BME280;14672;50.250;8.312;2023-02-04T02:15:44;100222.84;;;10.49;58.37
27144;BME280;14672;50.250;8.312;2023-02-04T02:18:11;100210.00;;;10.37;58.27
27144;BME280;14672;50.250;8.312;2023-02-04T02:20:37;100215.94;;;10.50;58.16
27144;BME280;14672;50.250;8.312;2023-02-04T02:24:17;100207.81;;;10.48;58.27
27144;BME280;14672;50.250;8.312;2023-02-04T02:26:10;100219.19;;;10.48;58.36
27144;BME280;14672;50.250;8.312;2023-02-04T02:28:36;100222.47;;;10.47;58.54
27144;BME280;14672;50.250;8.312;2023-02-04T02:31:02;100225.31;;;10.47;58.33
27144;BME280;14672;50.250;8.312;2023-02-04T02:33:28;100233.34;;;10.52;58.43
27144;BME280;14672;50.250;8.312;2023-02-04T02:35:54;100225.69;;;10.49;58.22
27144;BME280;14672;50.250;8.312;2023-02-04T02:38:20;100228.94;;;10.47;58.14
27144;BME280;14672;50.250;8.312;2023-02-04T02:40:47;100234.66;;;10.44;58.59
27144;BME280;14672;50.250;8.312;2023-02-04T02:43:20;100231.47;;;10.42;58.80
27144;BME280;14672;50.250;8.312;2023-02-04T02:45:48;100234.59;;;10.51;58.55
27144;BME280;14672;50.250;8.312;2023-02-04T02:48:15;100233.84;;;10.47;58.71
27144;BME280;14672;50.250;8.312;2023-02-04T02:50:41;100236.34;;;10.41;58.65
27144;BME280;14672;50.250;8.312;2023-02-04T02:53:17;100235.16;;;10.39;59.07
27144;BME280;14672;50.250;8.312;2023-02-04T02:55:45;100239.59;;;10.40;59.33
27144;BME280;14672;50.250;8.312;2023-02-04T02:58:27;100244.47;;;10.39;59.73
27144;BME280;14672;50.250;8.312;2023-02-04T03:00:54;100232.69;;;10.41;59.22
27144;BME280;14672;50.250;8.312;2023-02-04T03:03:34;100229.88;;;10.37;59.88
27144;BME280;14672;50.250;8.312;2023-02-04T03:08:35;100240.06;;;10.34;59.88
27144;BME280;14672;50.250;8.312;2023-02-04T03:11:01;100256.34;;;10.30;59.65
27144;BME280;14672;50.250;8.312;2023-02-04T03:13:28;100251.94;;;10.26;59.87
27144;BME280;14672;50.250;8.312;2023-02-04T03:15:54;100263.25;;;10.29;60.02
27144;BME280;14672;50.250;8.312;2023-02-04T03:18:20;100261.63;;;10.28;59.75
27144;BME280;14672;50.250;8.312;2023-02-04T03:20:48;100264.84;;;10.34;59.86
27144;BME280;14672;50.250;8.312;2023-02-04T03:23:16;100264.88;;;10.30;60.20
27144;BME280;14672;50.250;8.312;2023-02-04T03:25:42;100276.56;;;10.36;59.95
27144;BME280;14672;50.250;8.312;2023-02-04T03:28:08;100273.41;;;10.30;59.64
27144;BME280;14672;50.250;8.312;2023-02-04T03:30:34;100284.38;;;10.28;59.88
27144;BME280;14672;50.250;8.312;2023-02-04T03:33:00;100274.63;;;10.29;60.00
27144;BME280;14672;50.250;8.312;2023-02-04T03:35:26;100274.63;;;10.29;59.75
27144;BME280;14672;50.250;8.312;2023-02-04T03:37:52;100285.19;;;10.29;59.68
27144;BME280;14672;50.250;8.312;2023-02-04T03:40:18;100278.31;;;10.26;59.99
27144;BME280;14672;50.250;8.312;2023-02-04T03:42:43;100290.09;;;10.25;59.80
27144;BME280;14672;50.250;8.312;2023-02-04T03:45:09;100306.28;;;10.28;60.36
27144;BME280;14672;50.250;8.312;2023-02-04T03:47:35;100298.97;;;10.30;60.15
27144;BME280;14672;50.250;8.312;2023-02-04T03:50:01;100309.56;;;10.26;59.96
27144;BME280;14672;50.250;8.312;2023-02-04T03:52:27;100313.56;;;10.29;60.20
27144;BME280;14672;50.250;8.312;2023-02-04T03:54:52;100305.06;;;10.29;59.99
27144;BME280;14672;50.250;8.312;2023-02-04T03:57:18;100316.78;;;10.34;59.55
27144;BME280;14672;50.250;8.312;2023-02-04T03:59:44;100324.09;;;10.32;59.28
27144;BME280;14672;50.250;8.312;2023-02-04T04:02:10;100329.78;;;10.32;59.41
27144;BME280;14672;50.250;8.312;2023-02-04T04:04:35;100337.13;;;10.29;59.69
27144;BME280;14672;50.250;8.312;2023-02-04T04:07:01;100341.97;;;10.29;59.26
27144;BME280;14672;50.250;8.312;2023-02-04T04:09:27;100342.38;;;10.27;59.43
27144;BME280;14672;50.250;8.312;2023-02-04T04:11:54;100347.75;;;10.22;59.99
27144;BME280;14672;50.250;8.312;2023-02-04T04:14:19;100350.19;;;10.20;59.92
27144;BME280;14672;50.250;8.312;2023-02-04T04:16:45;100340.47;;;10.14;59.75
27144;BME280;14672;50.250;8.312;2023-02-04T04:19:11;100335.66;;;10.07;60.49
27144;BME280;14672;50.250;8.312;2023-02-04T04:21:37;100338.09;;;10.09;60.08
27144;BME280;14672;50.250;8.312;2023-02-04T04:24:03;100325.56;;;10.06;59.92
27144;BME280;14672;50.250;8.312;2023-02-04T04:26:29;100342.59;;;10.06;60.13
27144;BME280;14672;50.250;8.312;2023-02-04T04:28:54;100342.66;;;9.99;60.15
27144;BME280;14672;50.250;8.312;2023-02-04T04:31:20;100350.75;;;10.01;60.41
27144;BME280;14672;50.250;8.312;2023-02-04T04:33:46;100341.41;;;10.00;60.10
27144;BME280;14672;50.250;8.312;2023-02-04T04:36:12;100347.16;;;9.93;60.52
27144;BME280;14672;50.250;8.312;2023-02-04T04:38:39;100347.16;;;9.93;60.53
27144;BME280;14672;50.250;8.312;2023-02-04T04:41:05;100347.97;;;9.94;60.46
27144;BME280;14672;50.250;8.312;2023-02-04T04:43:30;100350.00;;;9.93;60.49
27144;BME280;14672;50.250;8.312;2023-02-04T04:45:56;100345.50;;;9.96;60.20
27144;BME280;14672;50.250;8.312;2023-02-04T04:48:22;100349.59;;;9.95;60.68
27144;BME280;14672;50.250;8.312;2023-02-04T04:50:49;100343.94;;;9.91;60.72
27144;BME280;14672;50.250;8.312;2023-02-04T04:53:15;100355.72;;;9.89;60.80
27144;BME280;14672;50.250;8.312;2023-02-04T04:55:41;100343.53;;;9.89;60.81
27144;BME280;14672;50.250;8.312;2023-02-04T04:58:07;100350.50;;;9.81;60.97
27144;BME280;14672;50.250;8.312;2023-02-04T05:00:33;100356.25;;;9.74;60.98
27144;BME280;14672;50.250;8.312;2023-02-04T05:02:59;100349.84;;;9.63;61.52
27144;BME280;14672;50.250;8.312;2023-02-04T05:05:25;100357.91;;;9.68;61.55
27144;BME280;14672;50.250;8.312;2023-02-04T05:07:51;100364.84;;;9.63;61.75
27144;BME280;14672;50.250;8.312;2023-02-04T05:10:19;100370.16;;;9.54;61.62
27144;BME280;14672;50.250;8.312;2023-02-04T05:12:44;100368.50;;;9.60;62.16
27144;BME280;14672;50.250;8.312;2023-02-04T05:15:10;100370.19;;;9.51;62.02
27144;BME280;14672;50.250;8.312;2023-02-04T05:17:36;100368.53;;;9.57;62.00
27144;BME280;14672;50.250;8.312;2023-02-04T05:20:03;100373.38;;;9.56;61.92
27144;BME280;14672;50.250;8.312;2023-02-04T05:22:29;100379.91;;;9.53;61.87
27144;BME280;14672;50.250;8.312;2023-02-04T05:24:54;100383.16;;;9.48;62.30
27144;BME280;14672;50.250;8.312;2023-02-04T05:27:20;100388.06;;;9.40;62.61
27144;BME280;14672;50.250;8.312;2023-02-04T05:29:46;100394.59;;;9.37;62.73
27144;BME280;14672;50.250;8.312;2023-02-04T05:32:12;100391.28;;;9.46;62.96
27144;BME280;14672;50.250;8.312;2023-02-04T05:34:37;100387.59;;;9.53;62.46
27144;BME280;14672;50.250;8.312;2023-02-04T05:37:03;100382.72;;;9.53;62.03
27144;BME280;14672;50.250;8.312;2023-02-04T05:39:29;100393.63;;;9.62;62.08
27144;BME280;14672;50.250;8.312;2023-02-04T05:41:55;100391.22;;;9.57;62.06
27144;BME280;14672;50.250;8.312;2023-02-04T05:44:20;100402.13;;;9.62;62.02
27144;BME280;14672;50.250;8.312;2023-02-04T05:46:46;100409.44;;;9.63;61.95
27144;BME280;14672;50.250;8.312;2023-02-04T05:49:12;100411.41;;;9.69;61.81
27144;BME280;14672;50.250;8.312;2023-02-04T05:51:38;100409.84;;;9.61;61.85
27144;BME280;14672;50.250;8.312;2023-02-04T05:54:04;100407.75;;;9.69;61.59
27144;BME280;14672;50.250;8.312;2023-02-04T05:56:29;100415.06;;;9.70;61.93
27144;BME280;14672;50.250;8.312;2023-02-04T05:58:55;100415.88;;;9.70;61.91
27144;BME280;14672;50.250;8.312;2023-02-04T06:01:21;100417.06;;;9.73;61.65
27144;BME280;14672;50.250;8.312;2023-02-04T06:03:47;100419.09;;;9.69;62.00
27144;BME280;14672;50.250;8.312;2023-02-04T06:06:12;100432.44;;;9.75;62.14
27144;BME280;14672;50.250;8.312;2023-02-04T06:08:38;100436.53;;;9.74;61.88
27144;BME280;14672;50.250;8.312;2023-02-04T06:11:04;100439.38;;;9.71;62.40
27144;BME280;14672;50.250;8.312;2023-02-04T06:13:30;100435.72;;;9.74;62.17
27144;BME280;14672;50.250;8.312;2023-02-04T06:15:56;100448.31;;;9.66;62.54
27144;BME280;14672;50.250;8.312;2023-02-04T06:18:22;100442.22;;;9.71;62.34
27144;BME280;14672;50.250;8.312;2023-02-04T06:20:47;100434.91;;;9.70;62.80
27144;BME280;14672;50.250;8.312;2023-02-04T06:23:13;100428.44;;;9.69;62.66
27144;BME280;14672;50.250;8.312;2023-02-04T06:25:39;100429.63;;;9.72;62.80
27144;BME280;14672;50.250;8.312;2023-02-04T06:28:05;100429.22;;;9.73;62.40
27144;BME280;14672;50.250;8.312;2023-02-04T06:30:30;100430.88;;;9.71;62.41
27144;BME280;14672;50.250;8.312;2023-02-04T06:32:56;100434.50;;;9.71;62.76
27144;BME280;14672;50.250;8.312;2023-02-04T06:35:22;100432.91;;;9.67;63.09
27144;BME280;14672;50.250;8.312;2023-02-04T06:37:48;100430.06;;;9.70;62.72
27144;BME280;14672;50.250;8.312;2023-02-04T06:40:13;100438.09;;;9.75;62.50
27144;BME280;14672;50.250;8.312;2023-02-04T06:42:39;100430.84;;;9.74;62.79
27144;BME280;14672;50.250;8.312;2023-02-04T06:45:06;100441.00;;;9.68;62.72
27144;BME280;14672;50.250;8.312;2023-02-04T06:47:32;100447.91;;;9.64;62.82
27144;BME280;14672;50.250;8.312;2023-02-04T06:49:57;100439.81;;;9.66;62.93
27144;BME280;14672;50.250;8.312;2023-02-04T06:52:23;100437.31;;;9.71;62.88
27144;BME280;14672;50.250;8.312;2023-02-04T06:54:49;100451.16;;;9.66;62.82
27144;BME280;14672;50.250;8.312;2023-02-04T06:57:15;100439.00;;;9.65;62.85
27144;BME280;14672;50.250;8.312;2023-02-04T06:59:42;100456.00;;;9.69;62.88
27144;BME280;14672;50.250;8.312;2023-02-04T07:02:10;100466.53;;;9.68;62.76
27144;BME280;14672;50.250;8.312;2023-02-04T07:04:36;100469.81;;;9.67;62.81
27144;BME280;14672;50.250;8.312;2023-02-04T07:07:02;100464.94;;;9.67;62.74
27144;BME280;14672;50.250;8.312;2023-02-04T07:09:28;100476.28;;;9.71;63.15
27144;BME280;14672;50.250;8.312;2023-02-04T07:11:54;100479.09;;;9.74;62.81
27144;BME280;14672;50.250;8.312;2023-02-04T07:14:20;100488.41;;;9.75;62.58
27144;BME280;14672;50.250;8.312;2023-02-04T07:16:46;100483.53;;;9.79;62.69
27144;BME280;14672;50.250;8.312;2023-02-04T07:19:12;100490.41;;;9.78;62.41
27144;BME280;14672;50.250;8.312;2023-02-04T07:21:37;100489.63;;;9.74;62.89
27144;BME280;14672;50.250;8.312;2023-02-04T07:24:03;100488.00;;;9.73;62.78
27144;BME280;14672;50.250;8.312;2023-02-04T07:26:29;100492.50;;;9.70;62.93
27144;BME280;14672;50.250;8.312;2023-02-04T07:28:55;100496.94;;;9.75;63.06
27144;BME280;14672;50.250;8.312;2023-02-04T07:31:21;100495.34;;;9.67;63.46
27144;BME280;14672;50.250;8.312;2023-02-04T07:33:47;100491.69;;;9.66;63.46
27144;BME280;14672;50.250;8.312;2023-02-04T07:36:12;100499.78;;;9.68;63.16
27144;BME280;14672;50.250;8.312;2023-02-04T07:38:38;100496.94;;;9.75;63.13
27144;BME280;14672;50.250;8.312;2023-02-04T07:41:04;100502.16;;;9.80;63.22
27144;BME280;14672;50.250;8.312;2023-02-04T07:43:30;100519.63;;;9.75;63.27
27144;BME280;14672;50.250;8.312;2023-02-04T07:45:55;100520.00;;;9.80;63.70
27144;BME280;14672;50.250;8.312;2023-02-04T07:48:21;100523.25;;;9.82;63.74
27144;BME280;14672;50.250;8.312;2023-02-04T07:50:47;100528.91;;;9.82;63.28
27144;BME280;14672;50.250;8.312;2023-02-04T07:53:13;100541.47;;;9.85;63.69
27144;BME280;14672;50.250;8.312;2023-02-04T07:55:39;100537.81;;;9.84;63.17
27144;BME280;14672;50.250;8.312;2023-02-04T07:58:04;100543.47;;;9.88;63.11
27144;BME280;14672;50.250;8.312;2023-02-04T08:00:30;100537.78;;;9.88;62.89
27144;BME280;14672;50.250;8.312;2023-02-04T08:02:56;100546.31;;;9.88;63.09
27144;BME280;14672;50.250;8.312;2023-02-04T08:05:22;100548.34;;;9.91;62.77
27144;BME280;14672;50.250;8.312;2023-02-04T08:07:48;100543.47;;;9.95;63.05
27144;BME280;14672;50.250;8.312;2023-02-04T08:10:13;100536.13;;;9.98;63.25
27144;BME280;14672;50.250;8.312;2023-02-04T08:12:39;100536.47;;;10.03;62.88
27144;BME280;14672;50.250;8.312;2023-02-04T08:15:05;100541.38;;;10.03;62.68
27144;BME280;14672;50.250;8.312;2023-02-04T08:17:33;100544.56;;;10.08;62.13
27144;BME280;14672;50.250;8.312;2023-02-04T08:19:59;100551.06;;;10.16;62.07
27144;BME280;14672;50.250;8.312;2023-02-04T08:22:25;100560.78;;;10.18;62.22
27144;BME280;14672;50.250;8.312;2023-02-04T08:24:51;100559.94;;;10.25;62.09
27144;BME280;14672;50.250;8.312;2023-02-04T08:27:16;100554.25;;;10.25;61.89
27144;BME280;14672;50.250;8.312;2023-02-04T08:29:42;100566.00;;;10.30;62.09
27144;BME280;14672;50.250;8.312;2023-02-04T08:32:08;100566.78;;;10.27;61.87
27144;BME280;14672;50.250;8.312;2023-02-04T08:34:38;100566.78;;;10.34;62.19
27144;BME280;14672;50.250;8.312;2023-02-04T08:37:04;100559.03;;;10.39;62.21
27144;BME280;14672;50.250;8.312;2023-02-04T08:39:30;100568.34;;;10.39;61.82
27144;BME280;14672;50.250;8.312;2023-02-04T08:41:57;100568.31;;;10.46;61.89
27144;BME280;14672;50.250;8.312;2023-02-04T08:44:23;100569.50;;;10.49;61.65
27144;BME280;14672;50.250;8.312;2023-02-04T08:46:49;100565.00;;;10.51;61.89
27144;BME280;14672;50.250;8.312;2023-02-04T08:49:15;100574.31;;;10.59;61.67
27144;BME280;14672;50.250;8.312;2023-02-04T08:51:41;100576.34;;;10.58;62.24
27144;BME280;14672;50.250;8.312;2023-02-04T08:54:06;100583.63;;;10.63;61.76
27144;BME280;14672;50.250;8.312;2023-02-04T08:56:32;100586.81;;;10.68;61.82
27144;BME280;14672;50.250;8.312;2023-02-04T08:59:00;100577.03;;;10.73;61.66
27144;BME280;14672;50.250;8.312;2023-02-04T09:01:25;100582.28;;;10.78;61.14
27144;BME280;14672;50.250;8.312;2023-02-04T09:03:51;100593.25;;;10.76;61.20
27144;BME280;14672;50.250;8.312;2023-02-04T09:06:17;100593.25;;;10.76;60.89
27144;BME280;14672;50.250;8.312;2023-02-04T09:08:43;100598.91;;;10.79;61.09
27144;BME280;14672;50.250;8.312;2023-02-04T09:11:09;100599.38;;;10.74;60.98
27144;BME280;14672;50.250;8.312;2023-02-04T09:13:37;100608.25;;;10.80;61.14
27144;BME280;14672;50.250;8.312;2023-02-04T09:16:04;100613.09;;;10.87;60.78
27144;BME280;14672;50.250;8.312;2023-02-04T09:18:29;100606.97;;;10.88;60.99
27144;BME280;14672;50.250;8.312;2023-02-04T09:20:57;100613.47;;;10.89;61.19
27144;BME280;14672;50.250;8.312;2023-02-04T09:23:23;100606.88;;;10.95;61.33
27144;BME280;14672;50.250;8.312;2023-02-04T09:25:49;100607.63;;;11.06;61.42
27144;BME280;14672;50.250;8.312;2023-02-04T09:28:15;100609.19;;;11.14;61.52
27144;BME280;14672;50.250;8.312;2023-02-04T09:30:44;100607.53;;;11.17;61.56
27144;BME280;14672;50.250;8.312;2023-02-04T09:33:12;100609.94;;;11.18;61.12
27144;BME280;14672;50.250;8.312;2023-02-04T09:35:38;100616.78;;;11.24;60.53
27144;BME280;14672;50.250;8.312;2023-02-04T09:38:04;100622.19;;;11.12;60.61
27144;BME280;14672;50.250;8.312;2023-02-04T09:40:35;100624.47;;;11.27;60.56
27144;BME280;14672;50.250;8.312;2023-02-04T09:43:03;100631.03;;;11.24;60.35
27144;BME280;14672;50.250;8.312;2023-02-04T09:45:33;100634.69;;;11.25;60.82
27144;BME280;14672;50.250;8.312;2023-02-04T09:48:03;100636.25;;;11.29;60.85
27144;BME280;14672;50.250;8.312;2023-02-04T09:50:30;100642.44;;;11.21;60.85
27144;BME280;14672;50.250;8.312;2023-02-04T09:53:03;100645.16;;;11.31;60.90
27144;BME280;14672;50.250;8.312;2023-02-04T09:55:36;100653.31;;;11.33;61.10
27144;BME280;14672;50.250;8.312;2023-02-04T09:58:04;100657.28;;;11.39;60.31
27144;BME280;14672;50.250;8.312;2023-02-04T10:00:30;100674.38;;;11.39;60.01
27144;BME280;14672;50.250;8.312;2023-02-04T10:02:58;100672.78;;;11.38;59.89
27144;BME280;14672;50.250;8.312;2023-02-04T10:05:30;100675.63;;;11.38;59.90
27144;BME280;14672;50.250;8.312;2023-02-04T10:07:57;100686.19;;;11.38;59.52
27144;BME280;14672;50.250;8.312;2023-02-04T10:10:25;100672.28;;;11.43;59.34
27144;BME280;14672;50.250;8.312;2023-02-04T10:12:58;100674.31;;;11.46;58.87
27144;BME280;14672;50.250;8.312;2023-02-04T10:15:25;100676.28;;;11.53;58.49
27144;BME280;14672;50.250;8.312;2023-02-04T10:17:57;100675.84;;;11.58;58.29
27144;BME280;14672;50.250;8.312;2023-02-04T10:20:26;100672.09;;;11.64;58.34
27144;BME280;14672;50.250;8.312;2023-02-04T10:22:53;100673.66;;;11.72;57.84
27144;BME280;14672;50.250;8.312;2023-02-04T10:25:24;100671.88;;;11.89;57.52
27144;BME280;14672;50.250;8.312;2023-02-04T10:27:58;100674.28;;;12.24;57.85
27144;BME280;14672;50.250;8.312;2023-02-04T10:30:46;100675.81;;;12.33;56.96
27144;BME280;14672;50.250;8.312;2023-02-04T10:33:32;100668.78;;;12.67;55.82
27144;BME280;14672;50.250;8.312;2023-02-04T10:35:59;100665.84;;;12.75;55.20
27144;BME280;14672;50.250;8.312;2023-02-04T10:38:25;100659.94;;;13.15;54.37
27144;BME280;14672;50.250;8.312;2023-02-04T10:41:03;100665.19;;;13.63;53.73
27144;BME280;14672;50.250;8.312;2023-02-04T10:43:30;100662.53;;;13.96;52.62
27144;BME280;14672;50.250;8.312;2023-02-04T10:46:01;100661.22;;;14.40;51.68
27144;BME280;14672;50.250;8.312;2023-02-04T10:48:27;100651.75;;;14.79;50.23
27144;BME280;14672;50.250;8.312;2023-02-04T10:50:56;100647.41;;;15.07;48.36
27144;BME280;14672;50.250;8.312;2023-02-04T10:53:24;100647.03;;;15.53;45.78
27144;BME280;14672;50.250;8.312;2023-02-04T10:56:18;100651.63;;;15.95;45.88
27144;BME280;14672;50.250;8.312;2023-02-04T10:58:45;100652.00;;;16.39;44.66
27144;BME280;14672;50.250;8.312;2023-02-04T11:01:14;100648.19;;;16.42;43.81
27144;BME280;14672;50.250;8.312;2023-02-04T11:03:42;100640.31;;;15.76;44.01
27144;BME280;14672;50.250;8.312;2023-02-04T11:06:19;100652.94;;;15.46;43.00
27144;BME280;14672;50.250;8.312;2023-02-04T11:08:46;100643.81;;;15.35;43.93
27144;BME280;14672;50.250;8.312;2023-02-04T11:11:23;100656.59;;;14.98;44.88
27144;BME280;14672;50.250;8.312;2023-02-04T11:16:28;100643.31;;;14.55;44.49
27144;BME280;14672;50.250;8.312;2023-02-04T11:19:10;100638.50;;;14.33;45.74
27144;BME280;14672;50.250;8.312;2023-02-04T11:27:37;100658.06;;;14.15;49.35
27144;BME280;14672;50.250;8.312;2023-02-04T11:29:37;100652.66;;;14.00;49.30
27144;BME280;14672;50.250;8.312;2023-02-04T11:35:26;100658.47;;;13.74;49.18
27144;BME280;14672;50.250;8.312;2023-02-04T11:37:54;100656.69;;;13.60;49.11
27144;BME280;14672;50.250;8.312;2023-02-04T11:42:58;100659.19;;;13.78;49.59
27144;BME280;14672;50.250;8.312;2023-02-04T11:45:31;100654.00;;;13.73;49.65
27144;BME280;14672;50.250;8.312;2023-02-04T11:48:19;100648.72;;;13.71;49.72
27144;BME280;14672;50.250;8.312;2023-02-04T11:51:01;100645.06;;;13.90;49.19
27144;BME280;14672;50.250;8.312;2023-02-04T11:53:32;100650.88;;;13.87;48.96
27144;BME280;14672;50.250;8.312;2023-02-04T11:55:59;100645.00;;;14.33;48.92
27144;BME280;14672;50.250;8.312;2023-02-04T11:58:25;100647.56;;;14.28;48.60
27144;BME280;14672;50.250;8.312;2023-02-04T12:00:53;100645.75;;;14.37;48.05
27144;BME280;14672;50.250;8.312;2023-02-04T12:03:28;100653.84;;;14.94;47.58
27144;BME280;14672;50.250;8.312;2023-02-04T12:05:56;100643.03;;;15.34;46.90
27144;BME280;14672;50.250;8.312;2023-02-04T12:11:09;100651.38;;;16.19;44.84
27144;BME280;14672;50.250;8.312;2023-02-04T12:13:52;100645.00;;;16.40;44.48
27144;BME280;14672;50.250;8.312;2023-02-04T12:16:19;100657.66;;;16.55;43.71
27144;BME280;14672;50.250;8.312;2023-02-04T12:18:45;100656.75;;;16.58;42.47
27144;BME280;14672;50.250;8.312;2023-02-04T12:21:11;100651.34;;;16.60;41.80
27144;BME280;14672;50.250;8.312;2023-02-04T12:23:39;100643.91;;;16.63;41.44
27144;BME280;14672;50.250;8.312;2023-02-04T12:26:07;100650.56;;;16.85;40.98
27144;BME280;14672;50.250;8.312;2023-02-04T12:28:33;100652.53;;;17.01;40.20
27144;BME280;14672;50.250;8.312;2023-02-04T12:30:59;100663.56;;;16.35;40.07
27144;BME280;14672;50.250;8.312;2023-02-04T12:33:25;100668.44;;;16.51;40.67
27144;BME280;14672;50.250;8.312;2023-02-04T12:35:51;100650.69;;;16.81;40.02
27144;BME280;14672;50.250;8.312;2023-02-04T12:38:18;100658.97;;;16.67;39.84
27144;BME280;14672;50.250;8.312;2023-02-04T12:40:44;100654.94;;;16.77;38.75
27144;BME280;14672;50.250;8.312;2023-02-04T12:43:10;100666.06;;;17.13;39.26
27144;BME280;14672;50.250;8.312;2023-02-04T12:45:36;100652.38;;;17.29;38.96
27144;BME280;14672;50.250;8.312;2023-02-04T12:48:03;100649.59;;;17.51;38.62
27144;BME280;14672;50.250;8.312;2023-02-04T12:50:29;100651.28;;;17.74;38.68
27144;BME280;14672;50.250;8.312;2023-02-04T12:52:57;100650.13;;;18.06;37.78
27144;BME280;14672;50.250;8.312;2023-02-04T12:55:26;100648.19;;;18.24;37.20
27144;BME280;14672;50.250;8.312;2023-02-04T12:57:53;100649.94;;;18.22;36.42
27144;BME280;14672;50.250;8.312;2023-02-04T13:00:21;100640.16;;;18.41;36.80
27144;BME280;14672;50.250;8.312;2023-02-04T13:02:48;100646.69;;;18.63;36.41
27144;BME280;14672;50.250;8.312;2023-02-04T13:05:15;100653.47;;;18.69;36.05
27144;BME280;14672;50.250;8.312;2023-02-04T13:07:41;100641.94;;;18.48;36.06
27144;BME280;14672;50.250;8.312;2023-02-04T13:10:08;100637.06;;;18.36;36.62
27144;BME280;14672;50.250;8.312;2023-02-04T13:12:35;100642.94;;;18.32;37.09